createdAt,value
2022-10-31T00:01:10.732Z,11.68
2022-10-31T00:03:37.233Z,11.70
2022-10-31T00:06:03.824Z,11.70
2022-10-31T00:08:30.509Z,11.68
2022-10-31T00:10:57.064Z,11.67
2022-10-31T00:13:23.567Z,11.68
2022-10-31T00:15:50.228Z,11.68
2022-10-31T00:18:16.727Z,11.68
2022-10-31T00:20:43.211Z,11.67
2022-10-31T00:23:11.492Z,11.66
2022-10-31T00:25:40.241Z,11.68
2022-10-31T00:28:08.401Z,11.67
2022-10-31T00:30:35.192Z,11.68
2022-10-31T00:33:03.917Z,11.67
2022-10-31T00:35:30.491Z,11.66
2022-10-31T00:37:56.990Z,11.65
2022-10-31T00:40:23.571Z,11.66
2022-10-31T00:42:50.077Z,11.66
2022-10-31T00:45:16.683Z,11.63
2022-10-31T00:47:43.190Z,11.62
2022-10-31T00:50:09.780Z,11.65
2022-10-31T00:52:36.440Z,11.61
2022-10-31T00:55:03.063Z,11.61
2022-10-31T00:57:29.604Z,11.64
2022-10-31T00:59:56.047Z,11.65
2022-10-31T01:02:22.774Z,11.69
2022-10-31T01:04:49.363Z,11.73
2022-10-31T01:07:15.829Z,11.74
2022-10-31T01:09:42.480Z,11.78
2022-10-31T01:12:09.574Z,11.80
2022-10-31T01:14:36.064Z,11.83
2022-10-31T01:17:02.587Z,11.87
2022-10-31T01:19:29.139Z,11.90
2022-10-31T01:21:56.324Z,11.91
2022-10-31T01:24:22.939Z,11.93
2022-10-31T01:26:49.533Z,11.95
2022-10-31T01:29:16.028Z,11.96
2022-10-31T01:31:42.645Z,11.98
2022-10-31T01:34:15.981Z,12.00
2022-10-31T01:36:43.207Z,12.02
2022-10-31T01:39:15.393Z,12.03
2022-10-31T01:41:48.188Z,12.04
2022-10-31T01:44:14.596Z,12.09
2022-10-31T01:46:58.046Z,12.13
2022-10-31T01:49:38.455Z,12.11
2022-10-31T01:52:13.054Z,12.17
2022-10-31T01:54:44.258Z,12.18
2022-10-31T01:57:14.095Z,12.17
2022-10-31T01:59:47.640Z,12.17
2022-10-31T02:02:16.200Z,12.25
2022-10-31T02:04:43.881Z,12.27
2022-10-31T02:07:14.303Z,12.30
2022-10-31T02:09:41.841Z,12.31
2022-10-31T02:12:11.202Z,12.32
2022-10-31T02:14:38.841Z,12.32
2022-10-31T02:17:05.599Z,12.37
2022-10-31T02:20:01.836Z,12.38
2022-10-31T02:22:39.182Z,12.36
2022-10-31T02:25:48.881Z,12.39
2022-10-31T02:28:24.387Z,12.41
2022-10-31T02:31:12.747Z,12.42
2022-10-31T02:33:54.792Z,12.41
2022-10-31T02:36:33.228Z,12.44
2022-10-31T02:39:08.929Z,12.46
2022-10-31T02:41:59.807Z,12.47
2022-10-31T02:44:46.448Z,12.47
2022-10-31T02:47:16.841Z,12.50
2022-10-31T02:50:03.670Z,12.50
2022-10-31T02:52:32.953Z,12.49
2022-10-31T02:54:59.811Z,12.52
2022-10-31T02:57:33.517Z,12.52
2022-10-31T03:00:04.521Z,12.50
2022-10-31T03:03:02.364Z,12.50
2022-10-31T03:06:21.409Z,12.51
2022-10-31T03:08:55.623Z,12.52
2022-10-31T03:11:29.756Z,12.48
2022-10-31T03:14:09.701Z,12.50
2022-10-31T03:16:47.585Z,12.49
2022-10-31T03:19:30.529Z,12.49
2022-10-31T03:22:05.738Z,12.45
2022-10-31T03:24:37.216Z,12.45
2022-10-31T03:27:08.655Z,12.49
2022-10-31T03:29:38.263Z,12.45
2022-10-31T03:32:13.372Z,12.51
2022-10-31T03:34:42.544Z,12.48
2022-10-31T03:37:15.187Z,12.52
2022-10-31T03:39:44.779Z,12.55
2022-10-31T03:42:22.496Z,12.57
2022-10-31T03:44:56.719Z,12.58
2022-10-31T03:47:23.708Z,12.57
2022-10-31T03:49:50.912Z,12.57
2022-10-31T03:52:29.416Z,12.54
2022-10-31T03:55:11.745Z,12.57
2022-10-31T03:57:44.507Z,12.57
2022-10-31T04:00:16.895Z,12.55
2022-10-31T04:02:52.871Z,12.57
2022-10-31T04:05:21.500Z,12.57
2022-10-31T04:07:50.929Z,12.56
2022-10-31T04:10:18.168Z,12.56
2022-10-31T04:12:51.678Z,12.57
2022-10-31T04:15:20.320Z,12.56
2022-10-31T04:17:51.353Z,12.56
2022-10-31T04:20:18.613Z,12.57
2022-10-31T04:22:45.321Z,12.58
2022-10-31T04:25:11.830Z,12.59
2022-10-31T04:27:38.307Z,12.61
2022-10-31T04:30:05.330Z,12.61
2022-10-31T04:32:31.803Z,12.62
2022-10-31T04:34:58.255Z,12.64
2022-10-31T04:37:24.780Z,12.64
2022-10-31T04:39:51.318Z,12.65
2022-10-31T04:42:17.768Z,12.66
2022-10-31T04:44:44.282Z,12.67
2022-10-31T04:47:10.775Z,12.68
2022-10-31T04:49:37.278Z,12.68
2022-10-31T04:52:04.080Z,12.70
2022-10-31T04:54:30.601Z,12.71
2022-10-31T04:56:57.648Z,12.71
2022-10-31T04:59:24.149Z,12.71
2022-10-31T05:01:50.767Z,12.71
2022-10-31T05:04:17.335Z,12.71
2022-10-31T05:06:43.880Z,12.67
2022-10-31T05:09:10.406Z,12.67
2022-10-31T05:11:36.896Z,12.64
2022-10-31T05:14:03.480Z,12.64
2022-10-31T05:16:29.991Z,12.61
2022-10-31T05:18:56.522Z,12.60
2022-10-31T05:21:23.159Z,12.60
2022-10-31T05:23:49.831Z,12.61
2022-10-31T05:26:17.661Z,12.62
2022-10-31T05:28:44.177Z,12.64
2022-10-31T05:31:10.726Z,12.66
2022-10-31T05:33:37.297Z,12.66
2022-10-31T05:36:04.050Z,12.67
2022-10-31T05:38:30.500Z,12.68
2022-10-31T05:41:02.071Z,12.68
2022-10-31T05:43:29.482Z,12.70
2022-10-31T05:45:57.146Z,12.73
2022-10-31T05:48:24.039Z,12.73
2022-10-31T05:50:50.869Z,12.73
2022-10-31T05:53:17.800Z,12.74
2022-10-31T05:55:44.797Z,12.74
2022-10-31T05:58:11.895Z,12.75
2022-10-31T06:00:38.383Z,12.75
2022-10-31T06:05:39.110Z,12.70
2022-10-31T06:08:05.931Z,12.69
2022-10-31T06:10:32.504Z,12.65
2022-10-31T06:12:59.029Z,12.62
2022-10-31T06:15:25.621Z,12.61
2022-10-31T06:18:00.194Z,12.61
2022-10-31T06:20:26.883Z,12.61
2022-10-31T06:22:53.366Z,12.63
2022-10-31T06:25:19.980Z,12.63
2022-10-31T06:27:46.473Z,12.66
2022-10-31T06:30:13.353Z,12.69
2022-10-31T06:32:39.849Z,12.72
2022-10-31T06:35:06.866Z,12.72
2022-10-31T06:37:33.452Z,12.73
2022-10-31T06:39:59.930Z,12.75
2022-10-31T06:42:26.375Z,12.77
2022-10-31T06:44:52.906Z,12.79
2022-10-31T06:47:19.400Z,12.79
2022-10-31T06:49:45.886Z,12.80
2022-10-31T06:52:12.419Z,12.81
2022-10-31T06:54:38.938Z,12.83
2022-10-31T06:57:05.449Z,12.84
2022-10-31T06:59:32.022Z,12.85
2022-10-31T07:01:59.766Z,12.86
2022-10-31T07:04:26.327Z,12.86
2022-10-31T07:06:53.757Z,12.88
2022-10-31T07:09:23.283Z,12.90
2022-10-31T07:11:52.695Z,12.89
2022-10-31T07:14:19.198Z,12.91
2022-10-31T07:16:49.668Z,12.92
2022-10-31T07:19:16.138Z,12.93
2022-10-31T07:21:42.788Z,12.96
2022-10-31T07:24:09.316Z,12.95
2022-10-31T07:26:35.789Z,12.97
2022-10-31T07:29:02.242Z,12.97
2022-10-31T07:31:28.775Z,12.99
2022-10-31T07:33:55.290Z,13.01
2022-10-31T07:36:21.744Z,13.01
2022-10-31T07:38:48.254Z,13.04
2022-10-31T07:41:14.732Z,13.05
2022-10-31T07:43:41.274Z,13.08
2022-10-31T07:46:07.844Z,13.09
2022-10-31T07:48:34.336Z,13.11
2022-10-31T07:51:00.792Z,13.12
2022-10-31T07:53:27.299Z,13.15
2022-10-31T07:55:53.824Z,13.17
2022-10-31T07:58:20.327Z,13.19
2022-10-31T08:00:48.418Z,13.21
2022-10-31T08:03:18.250Z,13.23
2022-10-31T08:05:48.333Z,13.26
2022-10-31T08:08:15.748Z,13.28
2022-10-31T08:10:42.985Z,13.31
2022-10-31T08:13:12.151Z,13.34
2022-10-31T08:15:42.126Z,13.37
2022-10-31T08:18:14.761Z,13.38
2022-10-31T08:20:42.623Z,13.40
2022-10-31T08:23:10.908Z,13.42
2022-10-31T08:25:38.818Z,13.46
2022-10-31T08:28:07.578Z,13.49
2022-10-31T08:30:36.168Z,13.52
2022-10-31T08:33:17.957Z,13.53
2022-10-31T08:35:45.211Z,13.57
2022-10-31T08:38:13.200Z,13.61
2022-10-31T08:40:40.556Z,13.64
2022-10-31T08:43:14.715Z,13.67
2022-10-31T08:45:42.311Z,13.71
2022-10-31T08:48:12.402Z,13.74
2022-10-31T08:50:39.483Z,13.78
2022-10-31T08:53:10.083Z,13.80
2022-10-31T08:55:38.309Z,13.83
2022-10-31T08:58:07.574Z,13.82
2022-10-31T09:00:35.615Z,13.86
2022-10-31T09:03:05.322Z,13.87
2022-10-31T09:05:32.352Z,13.92
2022-10-31T09:08:00.850Z,13.94
2022-10-31T09:10:29.288Z,13.95
2022-10-31T09:13:00.304Z,13.97
2022-10-31T09:15:28.565Z,13.99
2022-10-31T09:17:55.652Z,14.00
2022-10-31T09:20:22.665Z,14.03
2022-10-31T09:22:56.093Z,14.06
2022-10-31T09:25:22.583Z,14.06
2022-10-31T09:27:49.081Z,14.09
2022-10-31T09:30:15.592Z,14.12
2022-10-31T09:32:42.193Z,14.14
2022-10-31T09:35:09.075Z,14.16
2022-10-31T09:37:36.024Z,14.19
2022-10-31T09:40:02.551Z,14.21
2022-10-31T09:42:41.611Z,14.22
2022-10-31T09:45:21.868Z,14.21
2022-10-31T09:48:16.273Z,14.29
2022-10-31T09:51:17.696Z,14.34
2022-10-31T09:53:57.845Z,14.42
2022-10-31T09:56:26.536Z,14.48
2022-10-31T09:58:56.598Z,14.57
2022-10-31T10:01:26.096Z,14.66
2022-10-31T10:03:59.281Z,14.73
2022-10-31T10:06:30.623Z,14.80
2022-10-31T10:08:57.540Z,14.90
2022-10-31T10:11:42.528Z,14.96
2022-10-31T10:14:27.342Z,14.99
2022-10-31T10:17:17.090Z,15.04
2022-10-31T10:20:21.048Z,15.08
2022-10-31T10:22:55.450Z,15.12
2022-10-31T10:25:29.481Z,15.17
2022-10-31T10:28:14.617Z,15.24
2022-10-31T10:30:45.957Z,15.28
2022-10-31T10:33:19.509Z,15.39
2022-10-31T10:35:51.427Z,15.43
2022-10-31T10:38:33.110Z,15.50
2022-10-31T10:41:02.888Z,15.54
2022-10-31T10:43:39.580Z,15.58
2022-10-31T10:46:30.772Z,15.62
2022-10-31T10:49:09.359Z,15.68
2022-10-31T10:51:58.283Z,15.71
2022-10-31T10:54:43.808Z,15.78
2022-10-31T10:57:37.841Z,15.86
2022-10-31T11:00:18.275Z,15.87
2022-10-31T11:02:46.521Z,15.93
2022-10-31T11:05:21.205Z,15.96
2022-10-31T11:07:47.671Z,16.01
2022-10-31T11:10:15.712Z,16.04
2022-10-31T11:12:58.240Z,16.06
2022-10-31T11:15:27.336Z,16.09
2022-10-31T11:17:56.536Z,16.10
2022-10-31T11:20:31.428Z,16.16
2022-10-31T11:23:26.268Z,16.20
2022-10-31T11:25:55.476Z,16.30
2022-10-31T11:28:22.883Z,16.39
2022-10-31T11:30:55.763Z,16.45
2022-10-31T11:33:29.131Z,16.61
2022-10-31T11:35:58.142Z,16.81
2022-10-31T11:38:32.672Z,16.97
2022-10-31T11:41:08.042Z,17.12
2022-10-31T11:43:34.621Z,17.30
2022-10-31T11:46:10.378Z,17.42
2022-10-31T11:48:37.703Z,17.54
2022-10-31T11:51:05.963Z,17.64
2022-10-31T11:53:35.092Z,17.74
2022-10-31T11:56:16.405Z,17.84
2022-10-31T11:58:43.424Z,17.91
2022-10-31T12:01:30.394Z,18.04
2022-10-31T12:04:13.547Z,18.19
2022-10-31T12:06:43.249Z,18.30
2022-10-31T12:09:21.704Z,18.46
2022-10-31T12:12:13.579Z,18.61
2022-10-31T12:15:10.944Z,18.70
2022-10-31T12:17:55.266Z,18.79
2022-10-31T12:20:52.651Z,18.95
2022-10-31T12:23:34.488Z,19.08
2022-10-31T12:26:14.651Z,19.20
2022-10-31T12:28:59.978Z,19.31
2022-10-31T12:32:10.929Z,19.40
2022-10-31T12:34:37.387Z,19.49
2022-10-31T12:37:09.906Z,19.49
2022-10-31T12:40:00.147Z,19.42
2022-10-31T12:42:45.436Z,19.32
2022-10-31T12:45:37.312Z,19.17
2022-10-31T12:48:12.619Z,19.04
2022-10-31T12:50:57.329Z,18.93
2022-10-31T12:53:42.112Z,18.83
2022-10-31T12:56:16.860Z,18.74
2022-10-31T12:59:10.436Z,18.64
2022-10-31T13:01:42.517Z,18.59
2022-10-31T13:04:24.006Z,18.55
2022-10-31T13:06:58.974Z,18.49
2022-10-31T13:09:37.465Z,18.48
2022-10-31T13:12:14.270Z,18.48
2022-10-31T13:14:45.596Z,18.45
2022-10-31T13:17:45.657Z,18.42
2022-10-31T13:20:29.512Z,18.38
2022-10-31T13:23:29.770Z,18.36
2022-10-31T13:26:07.841Z,18.30
2022-10-31T13:28:43.112Z,18.26
2022-10-31T13:31:10.189Z,18.26
2022-10-31T13:33:50.911Z,18.23
2022-10-31T13:36:30.383Z,18.20
2022-10-31T13:39:11.806Z,18.16
2022-10-31T13:42:00.650Z,18.14
2022-10-31T13:44:35.873Z,18.12
2022-10-31T13:47:05.285Z,18.12
2022-10-31T13:49:31.839Z,18.14
2022-10-31T13:52:10.508Z,18.19
2022-10-31T13:54:41.118Z,18.22
2022-10-31T13:57:43.696Z,18.22
2022-10-31T14:00:22.244Z,18.22
2022-10-31T14:02:51.561Z,18.21
2022-10-31T14:05:26.292Z,18.20
2022-10-31T14:07:55.274Z,18.15
2022-10-31T14:10:26.306Z,18.10
2022-10-31T14:12:54.766Z,18.11
2022-10-31T14:15:22.744Z,18.11
2022-10-31T14:17:52.587Z,18.09
2022-10-31T14:20:18.989Z,18.08
2022-10-31T14:22:45.605Z,18.07
2022-10-31T14:25:36.226Z,18.04
2022-10-31T14:28:33.164Z,18.01
2022-10-31T14:31:01.223Z,17.99
2022-10-31T14:33:30.673Z,17.97
2022-10-31T14:36:41.828Z,17.89
2022-10-31T14:39:30.436Z,17.83
2022-10-31T14:42:02.006Z,17.86
2022-10-31T14:45:06.930Z,17.80
2022-10-31T14:47:39.794Z,17.74
2022-10-31T14:50:25.922Z,17.69
2022-10-31T14:52:58.357Z,17.69
2022-10-31T14:55:25.906Z,17.65
2022-10-31T14:57:58.513Z,17.59
2022-10-31T15:00:28.431Z,17.56
2022-10-31T15:03:25.063Z,17.51
2022-10-31T15:05:54.727Z,17.48
2022-10-31T15:08:34.322Z,17.46
2022-10-31T15:11:04.736Z,17.41
2022-10-31T15:13:31.327Z,17.41
2022-10-31T15:15:58.216Z,17.39
2022-10-31T15:18:28.442Z,17.35
2022-10-31T15:20:57.286Z,17.35
2022-10-31T15:23:30.135Z,17.32
2022-10-31T15:26:01.676Z,17.30
2022-10-31T15:28:29.083Z,17.29
2022-10-31T15:31:01.432Z,17.21
2022-10-31T15:33:36.560Z,17.19
2022-10-31T15:36:05.017Z,17.20
2022-10-31T15:38:31.666Z,17.16
2022-10-31T15:41:07.483Z,17.11
2022-10-31T15:43:38.588Z,17.09
2022-10-31T15:46:09.936Z,17.03
2022-10-31T15:48:36.611Z,17.01
2022-10-31T15:51:03.748Z,16.93
2022-10-31T15:53:49.881Z,16.84
2022-10-31T15:56:28.901Z,16.80
2022-10-31T15:58:57.702Z,16.74
2022-10-31T16:01:25.393Z,16.71
2022-10-31T16:04:23.399Z,16.65
2022-10-31T16:07:17.479Z,16.56
2022-10-31T16:10:04.813Z,16.49
2022-10-31T16:12:46.278Z,16.43
2022-10-31T16:15:18.738Z,16.42
2022-10-31T16:17:48.106Z,16.34
2022-10-31T16:20:25.975Z,16.29
2022-10-31T16:22:54.405Z,16.25
2022-10-31T16:25:25.402Z,16.20
2022-10-31T16:27:54.787Z,16.12
2022-10-31T16:30:46.783Z,16.08
2022-10-31T16:33:36.677Z,16.04
2022-10-31T16:36:34.755Z,15.99
2022-10-31T16:39:02.425Z,15.92
2022-10-31T16:41:29.299Z,15.87
2022-10-31T16:43:55.879Z,15.83
2022-10-31T16:46:27.168Z,15.80
2022-10-31T16:48:55.145Z,15.75
2022-10-31T16:51:22.047Z,15.71
2022-10-31T16:53:48.627Z,15.67
2022-10-31T16:56:23.112Z,15.65
2022-10-31T16:58:49.727Z,15.62
2022-10-31T17:01:17.010Z,15.59
2022-10-31T17:03:43.661Z,15.57
2022-10-31T17:06:13.432Z,15.53
2022-10-31T17:08:40.367Z,15.53
2022-10-31T17:11:16.463Z,15.51
2022-10-31T17:13:42.976Z,15.50
2022-10-31T17:16:09.663Z,15.46
2022-10-31T17:18:36.352Z,15.43
2022-10-31T17:21:06.240Z,15.43
2022-10-31T17:23:33.507Z,15.40
2022-10-31T17:26:00.868Z,15.38
2022-10-31T17:28:27.399Z,15.37
2022-10-31T17:30:58.467Z,15.32
2022-10-31T17:33:25.371Z,15.31
2022-10-31T17:35:51.860Z,15.31
2022-10-31T17:38:18.395Z,15.30
2022-10-31T17:40:45.341Z,15.29
2022-10-31T17:43:12.613Z,15.26
2022-10-31T17:45:40.837Z,15.27
2022-10-31T17:48:09.499Z,15.24
2022-10-31T17:50:36.236Z,15.24
2022-10-31T17:53:03.158Z,15.21
2022-10-31T17:55:34.535Z,15.17
2022-10-31T17:58:04.371Z,15.19
2022-10-31T18:00:30.902Z,15.17
2022-10-31T18:02:57.498Z,15.16
2022-10-31T18:05:24.176Z,15.14
2022-10-31T18:07:51.264Z,15.13
2022-10-31T18:10:18.413Z,15.10
2022-10-31T18:12:45.009Z,15.09
2022-10-31T18:15:11.545Z,15.07
2022-10-31T18:17:41.094Z,15.05
2022-10-31T18:20:09.686Z,15.02
2022-10-31T18:22:36.214Z,14.99
2022-10-31T18:25:03.510Z,14.99
2022-10-31T18:27:29.964Z,14.98
2022-10-31T18:29:56.780Z,14.96
2022-10-31T18:32:23.509Z,14.92
2022-10-31T18:34:50.104Z,14.93
2022-10-31T18:37:16.678Z,14.92
2022-10-31T18:39:43.267Z,14.92
2022-10-31T18:42:09.855Z,14.89
2022-10-31T18:44:36.532Z,14.88
2022-10-31T18:47:03.088Z,14.87
2022-10-31T18:49:32.800Z,14.85
2022-10-31T18:51:59.952Z,14.83
2022-10-31T18:54:26.694Z,14.82
2022-10-31T18:56:53.315Z,14.82
2022-10-31T18:59:19.790Z,14.80
2022-10-31T19:01:46.889Z,14.80
2022-10-31T19:04:13.688Z,14.78
2022-10-31T19:06:40.346Z,14.78
2022-10-31T19:09:11.001Z,14.76
2022-10-31T19:11:38.746Z,14.75
2022-10-31T19:14:08.189Z,14.73
2022-10-31T19:16:35.441Z,14.73
2022-10-31T19:19:02.523Z,14.72
2022-10-31T19:21:31.122Z,14.70
2022-10-31T19:23:58.451Z,14.69
2022-10-31T19:26:25.954Z,14.68
2022-10-31T19:28:52.892Z,14.67
2022-10-31T19:31:19.709Z,14.66
2022-10-31T19:33:47.108Z,14.64
2022-10-31T19:36:16.726Z,14.62
2022-10-31T19:38:45.070Z,14.61
2022-10-31T19:41:13.361Z,14.59
2022-10-31T19:43:39.934Z,14.60
2022-10-31T19:46:09.047Z,14.58
2022-10-31T19:48:39.309Z,14.56
2022-10-31T19:51:12.489Z,14.54
2022-10-31T19:53:39.652Z,14.53
2022-10-31T19:56:15.656Z,14.52
2022-10-31T19:58:42.539Z,14.51
2022-10-31T20:01:13.458Z,14.50
2022-10-31T20:03:42.523Z,14.49
2022-10-31T20:06:33.465Z,14.48
2022-10-31T20:09:03.544Z,14.46
2022-10-31T20:11:30.715Z,14.45
2022-10-31T20:14:00.505Z,14.44
2022-10-31T20:16:27.971Z,14.43
2022-10-31T20:18:55.072Z,14.42
2022-10-31T20:21:26.924Z,14.40
2022-10-31T20:23:57.864Z,14.38
2022-10-31T20:26:24.836Z,14.36
2022-10-31T20:28:51.557Z,14.36
2022-10-31T20:31:20.875Z,14.36
2022-10-31T20:33:48.950Z,14.33
2022-10-31T20:36:19.516Z,14.32
2022-10-31T20:38:46.860Z,14.30
2022-10-31T20:41:13.916Z,14.31
2022-10-31T20:43:41.306Z,14.29
2022-10-31T20:46:17.483Z,14.23
2022-10-31T20:48:44.828Z,14.27
2022-10-31T20:53:45.805Z,14.22
2022-10-31T20:56:17.691Z,14.23
2022-10-31T20:58:44.844Z,14.21
2022-10-31T21:01:20.088Z,14.21
2022-10-31T21:03:47.199Z,14.19
2022-10-31T21:06:14.756Z,14.19
2022-10-31T21:08:42.415Z,14.19
2022-10-31T21:11:11.564Z,14.18
2022-10-31T21:13:40.823Z,14.17
2022-10-31T21:16:11.480Z,14.16
2022-10-31T21:18:39.515Z,14.17
2022-10-31T21:21:11.056Z,14.15
2022-10-31T21:23:38.004Z,14.14
2022-10-31T21:26:13.400Z,14.11
2022-10-31T21:28:40.367Z,14.14
2022-10-31T21:31:12.584Z,14.12
2022-10-31T21:33:39.515Z,14.13
2022-10-31T21:36:07.030Z,14.13
2022-10-31T21:38:34.472Z,14.13
2022-10-31T21:41:14.619Z,14.13
2022-10-31T21:43:43.957Z,14.12
2022-10-31T21:46:24.526Z,14.14
2022-10-31T21:48:51.054Z,14.13
2022-10-31T21:51:29.217Z,14.13
2022-10-31T21:54:15.370Z,14.13
2022-10-31T21:56:42.730Z,14.13
2022-10-31T21:59:09.672Z,14.13
2022-10-31T22:01:36.398Z,14.13
2022-10-31T22:04:04.007Z,14.13
2022-10-31T22:06:30.988Z,14.15
2022-10-31T22:09:02.689Z,14.14
2022-10-31T22:11:29.644Z,14.15
2022-10-31T22:13:58.410Z,14.15
2022-10-31T22:16:26.576Z,14.14
2022-10-31T22:18:55.194Z,14.15
2022-10-31T22:21:24.467Z,14.16
2022-10-31T22:23:52.713Z,14.17
2022-10-31T22:26:19.395Z,14.18
2022-10-31T22:28:53.347Z,14.17
2022-10-31T22:31:22.057Z,14.16
2022-10-31T22:33:50.002Z,14.17
2022-10-31T22:36:19.300Z,14.15
2022-10-31T22:38:46.802Z,14.18
2022-10-31T22:41:15.699Z,14.18
2022-10-31T22:43:42.524Z,14.19
2022-10-31T22:46:12.632Z,14.17
2022-10-31T22:48:41.825Z,14.19
2022-10-31T22:51:26.393Z,14.19
2022-10-31T22:53:56.599Z,14.19
2022-10-31T22:56:26.624Z,14.19
2022-10-31T22:58:53.378Z,14.20
2022-10-31T23:01:22.347Z,14.20
2022-10-31T23:03:49.141Z,14.21
2022-10-31T23:06:18.945Z,14.18
2022-10-31T23:08:46.781Z,14.22
2022-10-31T23:11:23.974Z,14.22
2022-10-31T23:14:08.966Z,14.22
2022-10-31T23:16:44.305Z,14.23
2022-10-31T23:19:19.710Z,14.23
2022-10-31T23:21:56.331Z,14.24
2022-10-31T23:24:25.769Z,14.23
2022-10-31T23:27:11.797Z,14.27
2022-10-31T23:29:52.886Z,14.24
2022-10-31T23:32:24.821Z,14.26
2022-10-31T23:34:53.582Z,14.28
2022-10-31T23:37:21.898Z,14.29
2022-10-31T23:39:48.943Z,14.30
2022-10-31T23:42:16.624Z,14.31
2022-10-31T23:44:43.464Z,14.30
2022-10-31T23:47:10.557Z,14.31
2022-10-31T23:49:37.819Z,14.31
2022-10-31T23:52:05.069Z,14.34
2022-10-31T23:54:32.247Z,14.32
2022-10-31T23:56:59.035Z,14.32
2022-10-31T23:59:26.606Z,14.33
